createdAt,value
2023-03-29T00:03:00.035Z,0.94
2023-03-29T00:07:02.335Z,0.89
2023-03-29T00:11:04.549Z,0.83
2023-03-29T00:15:07.642Z,0.82
2023-03-29T00:19:10.472Z,0.86
2023-03-29T00:23:11.954Z,0.85
2023-03-29T00:27:13.620Z,0.86
2023-03-29T00:31:17.564Z,0.82
2023-03-29T00:35:20.702Z,0.84
2023-03-29T00:39:22.228Z,0.77
2023-03-29T00:43:24.105Z,0.60
2023-03-29T00:47:29.103Z,0.57
2023-03-29T00:51:36.613Z,0.52
2023-03-29T00:55:43.106Z,0.40
2023-03-29T00:59:46.902Z,0.36
2023-03-29T01:03:53.078Z,0.46
2023-03-29T01:07:58.899Z,0.45
2023-03-29T01:12:05.431Z,0.43
2023-03-29T01:16:10.351Z,0.48
2023-03-29T01:20:19.561Z,0.44
2023-03-29T01:24:38.717Z,0.40
2023-03-29T01:28:46.681Z,0.34
2023-03-29T01:32:54.332Z,0.34
2023-03-29T01:37:00.691Z,0.33
2023-03-29T01:41:02.506Z,0.31
2023-03-29T01:45:16.643Z,0.32
2023-03-29T01:49:25.488Z,0.35
2023-03-29T01:53:31.698Z,0.40
2023-03-29T01:57:34.301Z,0.45
2023-03-29T02:01:42.688Z,0.44
2023-03-29T02:05:45.347Z,0.47
2023-03-29T02:09:48.078Z,0.60
2023-03-29T02:13:49.547Z,0.67
2023-03-29T02:17:52.593Z,0.65
2023-03-29T02:22:00.433Z,0.68
2023-03-29T02:26:03.000Z,0.71
2023-03-29T02:30:05.413Z,0.63
2023-03-29T02:34:13.287Z,0.61
2023-03-29T02:38:15.395Z,0.58
2023-03-29T02:42:19.100Z,0.49
2023-03-29T02:46:21.043Z,0.51
2023-03-29T02:50:25.517Z,0.54
2023-03-29T02:54:28.590Z,0.57
2023-03-29T02:58:30.118Z,0.60
2023-03-29T03:02:31.621Z,0.62
2023-03-29T03:06:34.456Z,0.64
2023-03-29T03:10:36.377Z,0.75
2023-03-29T03:14:37.849Z,0.67
2023-03-29T03:18:39.306Z,0.62
2023-03-29T03:22:44.489Z,0.67
2023-03-29T03:26:45.909Z,0.63
2023-03-29T03:30:47.507Z,0.55
2023-03-29T03:34:48.929Z,0.55
2023-03-29T03:38:51.818Z,0.68
2023-03-29T03:42:53.252Z,0.66
2023-03-29T03:46:54.712Z,0.74
2023-03-29T03:50:57.918Z,0.87
2023-03-29T03:55:00.720Z,0.97
2023-03-29T03:59:02.214Z,0.93
2023-03-29T04:03:04.101Z,0.97
2023-03-29T04:07:05.751Z,0.90
2023-03-29T04:11:08.533Z,0.91
2023-03-29T04:15:10.168Z,0.73
2023-03-29T04:19:11.603Z,0.69
2023-03-29T04:23:13.666Z,0.74
2023-03-29T04:27:16.523Z,0.78
2023-03-29T04:31:18.059Z,0.78
2023-03-29T04:35:19.568Z,0.89
2023-03-29T04:39:21.204Z,0.82
2023-03-29T04:43:24.044Z,0.77
2023-03-29T04:47:25.509Z,0.84
2023-03-29T04:51:26.960Z,0.92
2023-03-29T04:55:28.414Z,0.87
2023-03-29T04:59:31.481Z,0.89
2023-03-29T05:03:33.009Z,0.96
2023-03-29T05:07:34.437Z,0.96
2023-03-29T05:11:36.053Z,1.04
2023-03-29T05:15:41.152Z,1.14
2023-03-29T05:19:42.841Z,1.14
2023-03-29T05:23:44.291Z,1.19
2023-03-29T05:27:45.938Z,1.29
2023-03-29T05:31:49.103Z,1.36
2023-03-29T05:35:58.874Z,1.39
2023-03-29T05:40:05.513Z,1.44
2023-03-29T05:44:07.852Z,1.51
2023-03-29T05:48:10.732Z,1.50
2023-03-29T05:52:12.273Z,1.47
2023-03-29T05:56:13.732Z,1.43
2023-03-29T06:00:16.403Z,1.45
2023-03-29T06:04:19.289Z,1.49
2023-03-29T06:08:20.828Z,1.58
2023-03-29T06:12:22.281Z,1.70
2023-03-29T06:16:23.814Z,1.79
2023-03-29T06:20:27.385Z,1.85
2023-03-29T06:24:29.003Z,1.92
2023-03-29T06:28:30.605Z,1.97
2023-03-29T06:32:33.707Z,2.08
2023-03-29T06:36:36.530Z,2.21
2023-03-29T06:40:38.217Z,2.33
2023-03-29T06:44:39.700Z,2.41
2023-03-29T06:48:41.178Z,2.46
2023-03-29T06:52:44.299Z,2.41
2023-03-29T06:56:45.798Z,2.41
2023-03-29T07:00:47.323Z,2.58
2023-03-29T07:04:48.809Z,2.76
2023-03-29T07:08:51.731Z,2.91
2023-03-29T07:12:53.606Z,3.11
2023-03-29T07:16:55.312Z,3.28
2023-03-29T07:20:56.754Z,3.37
2023-03-29T07:24:59.575Z,3.41
2023-03-29T07:29:01.050Z,3.57
2023-03-29T07:33:03.132Z,3.53
2023-03-29T07:37:04.635Z,3.52
2023-03-29T07:41:07.776Z,3.51
2023-03-29T07:45:11.036Z,3.50
2023-03-29T07:49:12.542Z,3.45
2023-03-29T07:53:14.083Z,3.50
2023-03-29T07:57:16.932Z,3.57
2023-03-29T08:01:19.635Z,3.50
2023-03-29T08:05:37.968Z,3.56
2023-03-29T08:09:42.504Z,3.52
2023-03-29T08:13:45.312Z,3.67
2023-03-29T08:17:46.871Z,3.72
2023-03-29T08:21:48.403Z,3.75
2023-03-29T08:25:49.829Z,3.78
2023-03-29T08:29:52.619Z,3.81
2023-03-29T08:33:54.076Z,3.98
2023-03-29T08:37:55.525Z,3.94
2023-03-29T08:42:08.500Z,4.02
2023-03-29T08:46:23.242Z,4.08
2023-03-29T08:50:32.595Z,4.07
2023-03-29T08:54:40.896Z,4.09
2023-03-29T08:58:44.829Z,4.29
2023-03-29T09:02:49.285Z,4.33
2023-03-29T09:06:50.906Z,4.50
2023-03-29T09:11:08.395Z,4.68
2023-03-29T09:15:15.163Z,4.81
2023-03-29T09:19:26.913Z,5.10
2023-03-29T09:23:45.608Z,5.26
2023-03-29T09:27:49.832Z,5.43
2023-03-29T09:31:53.134Z,5.70
2023-03-29T09:36:01.930Z,5.97
2023-03-29T09:40:11.305Z,6.01
2023-03-29T09:48:22.995Z,6.32
2023-03-29T09:52:25.915Z,6.59
2023-03-29T09:56:27.733Z,6.52
2023-03-29T10:00:29.191Z,6.70
2023-03-29T10:04:30.746Z,6.62
2023-03-29T10:08:40.416Z,6.67
2023-03-29T10:12:46.156Z,6.96
2023-03-29T10:16:55.324Z,6.90
2023-03-29T10:20:59.335Z,6.64
2023-03-29T10:25:02.092Z,6.82
2023-03-29T10:29:06.226Z,6.99
2023-03-29T10:33:16.838Z,6.87
2023-03-29T10:37:19.629Z,7.12
2023-03-29T10:41:23.397Z,7.17
2023-03-29T10:45:27.305Z,7.23
2023-03-29T10:49:28.759Z,7.48
2023-03-29T10:53:32.361Z,7.43
2023-03-29T10:57:44.752Z,7.26
2023-03-29T11:01:57.840Z,7.20
2023-03-29T11:06:07.650Z,7.39
2023-03-29T11:10:27.339Z,7.46
2023-03-29T11:14:43.026Z,7.55
2023-03-29T11:19:23.907Z,7.60
2023-03-29T11:23:40.412Z,7.90
2023-03-29T11:27:48.799Z,8.17
2023-03-29T11:32:04.781Z,8.69
2023-03-29T11:36:14.433Z,8.57
2023-03-29T11:40:33.790Z,8.59
2023-03-29T11:44:37.823Z,8.52
2023-03-29T11:48:47.059Z,8.43
2023-03-29T11:52:53.853Z,8.55
2023-03-29T11:56:59.802Z,8.42
2023-03-29T12:01:06.678Z,8.79
2023-03-29T12:05:18.108Z,8.98
2023-03-29T12:09:29.262Z,8.88
2023-03-29T12:13:37.383Z,8.79
2023-03-29T12:17:43.689Z,9.04
2023-03-29T12:21:48.395Z,9.46
2023-03-29T12:25:57.070Z,9.49
2023-03-29T12:30:21.432Z,9.52
2023-03-29T12:34:44.521Z,9.54
2023-03-29T12:38:51.684Z,9.67
2023-03-29T12:42:56.168Z,9.42
2023-03-29T12:46:59.681Z,9.53
2023-03-29T12:51:03.587Z,9.72
2023-03-29T12:55:22.461Z,9.75
2023-03-29T12:59:36.476Z,9.60
2023-03-29T13:03:47.641Z,9.63
2023-03-29T13:07:49.124Z,9.53
2023-03-29T13:11:54.308Z,9.52
2023-03-29T13:15:56.707Z,9.46
2023-03-29T13:20:28.242Z,9.42
2023-03-29T13:24:44.084Z,9.60
2023-03-29T13:29:02.966Z,9.51
2023-03-29T13:33:16.927Z,9.52
2023-03-29T13:37:28.810Z,9.59
2023-03-29T13:41:33.291Z,9.56
2023-03-29T13:45:36.871Z,9.53
2023-03-29T13:49:42.252Z,9.32
2023-03-29T13:53:48.180Z,9.17
2023-03-29T13:57:53.261Z,9.16
2023-03-29T14:01:58.735Z,8.89
2023-03-29T14:06:02.417Z,8.83
2023-03-29T14:10:04.821Z,8.78
2023-03-29T14:14:07.139Z,8.74
2023-03-29T14:18:12.155Z,8.79
2023-03-29T14:22:15.885Z,8.79
2023-03-29T14:26:19.718Z,8.77
2023-03-29T14:30:25.815Z,8.86
2023-03-29T14:34:28.626Z,8.93
2023-03-29T14:38:31.527Z,9.03
2023-03-29T14:42:33.076Z,9.03
2023-03-29T14:46:35.422Z,9.14
2023-03-29T14:50:38.614Z,9.24
2023-03-29T14:54:48.100Z,9.30
2023-03-29T14:58:49.664Z,9.39
2023-03-29T15:02:55.111Z,9.45
2023-03-29T15:06:58.512Z,9.39
2023-03-29T15:11:00.888Z,9.48
2023-03-29T15:15:03.047Z,9.34
2023-03-29T15:19:04.731Z,9.19
2023-03-29T15:23:21.397Z,9.01
2023-03-29T15:27:22.897Z,8.80
2023-03-29T15:31:26.854Z,8.85
2023-03-29T15:35:28.518Z,8.79
2023-03-29T15:39:31.933Z,8.75
2023-03-29T15:43:33.695Z,8.80
2023-03-29T15:47:35.182Z,8.79
2023-03-29T15:51:36.687Z,8.80
2023-03-29T15:55:43.366Z,8.76
2023-03-29T15:59:45.130Z,8.88
2023-03-29T16:03:48.112Z,8.85
2023-03-29T16:07:49.750Z,8.89
2023-03-29T16:11:52.633Z,8.93
2023-03-29T16:15:54.083Z,8.92
2023-03-29T16:19:55.548Z,9.00
2023-03-29T16:23:57.036Z,8.97
2023-03-29T16:27:59.831Z,9.07
2023-03-29T16:32:01.346Z,9.01
2023-03-29T16:36:03.814Z,8.87
2023-03-29T16:40:06.837Z,8.73
2023-03-29T16:44:13.880Z,8.63
2023-03-29T16:48:17.073Z,8.68
2023-03-29T16:52:18.572Z,8.61
2023-03-29T16:56:20.154Z,8.59
2023-03-29T17:00:23.229Z,8.55
2023-03-29T17:04:24.843Z,8.59
2023-03-29T17:08:26.426Z,8.44
2023-03-29T17:12:27.931Z,8.33
2023-03-29T17:16:30.816Z,8.18
2023-03-29T17:20:32.276Z,8.07
2023-03-29T17:24:33.802Z,7.98
2023-03-29T17:28:35.244Z,7.97
2023-03-29T17:32:38.034Z,7.98
2023-03-29T17:36:39.543Z,7.98
2023-03-29T17:40:40.950Z,7.87
2023-03-29T17:44:42.397Z,7.72
2023-03-29T17:48:46.212Z,7.66
2023-03-29T17:52:47.682Z,7.67
2023-03-29T17:56:49.493Z,7.59
2023-03-29T18:00:51.066Z,7.59
2023-03-29T18:04:54.000Z,7.61
2023-03-29T18:08:55.461Z,7.64
2023-03-29T18:12:57.059Z,7.61
2023-03-29T18:16:58.564Z,7.61
2023-03-29T18:21:01.649Z,7.65
2023-03-29T18:25:03.399Z,7.59
2023-03-29T18:29:04.851Z,7.62
2023-03-29T18:33:06.389Z,7.60
2023-03-29T18:37:09.275Z,7.54
2023-03-29T18:41:13.086Z,7.58
2023-03-29T18:45:14.710Z,7.51
2023-03-29T18:49:16.132Z,7.48
2023-03-29T18:53:19.528Z,7.45
2023-03-29T18:57:21.214Z,7.49
2023-03-29T19:01:22.844Z,7.50
2023-03-29T19:05:24.298Z,7.52
2023-03-29T19:09:27.100Z,7.55
2023-03-29T19:13:28.576Z,7.53
2023-03-29T19:17:30.025Z,7.60
2023-03-29T19:21:31.488Z,7.71
2023-03-29T19:25:34.272Z,7.79
2023-03-29T19:29:35.763Z,7.90
2023-03-29T19:33:37.253Z,7.93
2023-03-29T19:37:38.793Z,8.00
2023-03-29T19:41:41.951Z,7.93
2023-03-29T19:45:43.697Z,7.72
2023-03-29T19:49:45.127Z,7.46
2023-03-29T19:53:46.562Z,7.30
2023-03-29T19:57:49.435Z,7.14
2023-03-29T20:01:51.197Z,7.09
2023-03-29T20:05:52.756Z,7.20
2023-03-29T20:09:54.198Z,7.24
2023-03-29T20:13:57.161Z,7.39
2023-03-29T20:17:59.847Z,7.49
2023-03-29T20:22:01.453Z,7.62
2023-03-29T20:26:03.027Z,7.75
2023-03-29T20:30:07.761Z,7.82
2023-03-29T20:34:09.304Z,7.95
2023-03-29T20:38:10.834Z,7.86
2023-03-29T20:42:12.292Z,7.77
2023-03-29T20:46:15.168Z,7.58
2023-03-29T20:50:18.924Z,7.41
2023-03-29T20:54:20.498Z,7.34
2023-03-29T20:58:21.937Z,7.32
2023-03-29T21:02:24.869Z,7.33
2023-03-29T21:06:26.589Z,7.28
2023-03-29T21:10:28.125Z,7.23
2023-03-29T21:14:29.592Z,7.31
2023-03-29T21:18:32.398Z,7.29
2023-03-29T21:22:34.927Z,7.28
2023-03-29T21:26:37.242Z,7.26
2023-03-29T21:30:38.878Z,7.15
2023-03-29T21:34:41.677Z,7.15
2023-03-29T21:38:43.164Z,7.15
2023-03-29T21:42:44.636Z,7.10
2023-03-29T21:46:46.353Z,7.05
2023-03-29T21:50:49.843Z,7.04
2023-03-29T21:54:52.324Z,6.95
2023-03-29T21:58:54.141Z,6.79
2023-03-29T22:02:55.607Z,6.69
2023-03-29T22:06:58.421Z,6.74
2023-03-29T22:11:07.509Z,6.66
2023-03-29T22:15:11.067Z,6.66
2023-03-29T22:19:12.624Z,6.71
2023-03-29T22:23:15.418Z,6.66
2023-03-29T22:27:16.856Z,6.81
2023-03-29T22:31:20.995Z,6.73
2023-03-29T22:35:22.471Z,6.76
2023-03-29T22:39:25.330Z,6.82
2023-03-29T22:43:26.802Z,6.88
2023-03-29T22:47:28.403Z,6.93
2023-03-29T22:51:30.045Z,6.96
2023-03-29T22:55:32.837Z,7.06
2023-03-29T22:59:34.353Z,7.05
2023-03-29T23:03:36.147Z,7.18
2023-03-29T23:07:37.599Z,7.24
2023-03-29T23:11:40.393Z,7.25
2023-03-29T23:15:44.082Z,7.19
2023-03-29T23:19:45.524Z,7.16
2023-03-29T23:23:46.974Z,7.25
2023-03-29T23:27:49.795Z,7.23
2023-03-29T23:31:51.262Z,7.32
2023-03-29T23:35:54.058Z,7.23
2023-03-29T23:39:55.646Z,7.23
2023-03-29T23:43:58.467Z,7.12
2023-03-29T23:47:59.954Z,7.16
2023-03-29T23:52:01.499Z,7.22
2023-03-29T23:56:05.358Z,7.26
